createdAt,value
2018-10-21T00:03:06.956Z,100.00
2018-10-21T00:08:10.486Z,100.00
2018-10-21T00:13:14.039Z,100.00
2018-10-21T00:18:17.617Z,100.00
2018-10-21T00:23:21.136Z,100.00
2018-10-21T00:28:24.886Z,100.00
2018-10-21T00:33:28.415Z,100.00
2018-10-21T00:38:32.119Z,100.00
2018-10-21T00:43:35.722Z,100.00
2018-10-21T00:48:39.518Z,100.00
2018-10-21T00:53:43.098Z,100.00
2018-10-21T00:58:46.624Z,100.00
2018-10-21T01:03:50.228Z,100.00
2018-10-21T01:08:53.899Z,100.00
2018-10-21T01:13:57.391Z,100.00
2018-10-21T01:19:01.255Z,100.00
2018-10-21T01:24:04.842Z,100.00
2018-10-21T01:29:08.415Z,100.00
2018-10-21T01:34:11.977Z,100.00
2018-10-21T01:39:15.561Z,100.00
2018-10-21T01:44:19.092Z,100.00
2018-10-21T01:49:22.649Z,100.00
2018-10-21T01:54:26.406Z,100.00
2018-10-21T01:59:29.909Z,100.00
2018-10-21T02:04:33.517Z,100.00
2018-10-21T02:09:37.020Z,100.00
2018-10-21T02:14:40.568Z,100.00
2018-10-21T02:19:44.275Z,100.00
2018-10-21T02:24:47.807Z,100.00
2018-10-21T02:29:51.321Z,100.00
2018-10-21T02:34:54.831Z,100.00
2018-10-21T02:39:58.357Z,100.00
2018-10-21T02:45:01.919Z,100.00
2018-10-21T02:50:06.018Z,100.00
2018-10-21T02:55:09.548Z,100.00
2018-10-21T03:00:19.223Z,100.00
2018-10-21T03:05:22.761Z,100.00
2018-10-21T03:10:26.229Z,100.00
2018-10-21T03:15:29.754Z,100.00
2018-10-21T03:20:33.307Z,100.00
2018-10-21T03:25:36.900Z,100.00
2018-10-21T03:30:40.413Z,100.00
2018-10-21T03:35:55.707Z,100.00
2018-10-21T03:40:59.218Z,100.00
2018-10-21T03:46:03.135Z,100.00
2018-10-21T03:51:06.933Z,100.00
2018-10-21T03:56:10.762Z,100.00
2018-10-21T04:01:14.361Z,100.00
2018-10-21T04:06:17.842Z,100.00
2018-10-21T04:11:21.449Z,100.00
2018-10-21T04:16:25.008Z,100.00
2018-10-21T04:21:28.531Z,100.00
2018-10-21T04:26:32.029Z,100.00
2018-10-21T04:31:35.728Z,100.00
2018-10-21T04:36:39.217Z,100.00
2018-10-21T04:41:42.825Z,100.00
2018-10-21T04:46:46.347Z,100.00
2018-10-21T04:51:49.860Z,100.00
2018-10-21T04:56:53.469Z,100.00
2018-10-21T05:01:57.271Z,100.00
2018-10-21T05:07:00.783Z,100.00
2018-10-21T05:12:04.333Z,100.00
2018-10-21T05:17:07.857Z,100.00
2018-10-21T05:22:11.387Z,100.00
2018-10-21T05:27:15.049Z,100.00
2018-10-21T05:32:18.542Z,100.00
2018-10-21T05:37:22.171Z,100.00
2018-10-21T05:42:26.112Z,100.00
2018-10-21T05:47:29.719Z,100.00
2018-10-21T05:52:33.646Z,100.00
2018-10-21T05:57:37.239Z,100.00
2018-10-21T06:02:40.760Z,100.00
2018-10-21T06:07:44.333Z,100.00
2018-10-21T06:12:47.838Z,100.00
2018-10-21T06:17:51.374Z,100.00
2018-10-21T06:22:54.936Z,100.00
2018-10-21T06:27:58.475Z,100.00
2018-10-21T06:33:02.045Z,100.00
2018-10-21T06:38:06.074Z,100.00
2018-10-21T06:43:09.692Z,100.00
2018-10-21T06:48:13.364Z,100.00
2018-10-21T06:53:16.952Z,100.00
2018-10-21T06:58:20.493Z,100.00
2018-10-21T07:03:24.438Z,100.00
2018-10-21T07:08:27.943Z,100.00
2018-10-21T07:13:33.658Z,100.00
2018-10-21T07:18:37.308Z,100.00
2018-10-21T07:23:40.907Z,100.00
2018-10-21T07:28:44.418Z,100.00
2018-10-21T07:33:47.944Z,100.00
2018-10-21T07:38:51.471Z,100.00
2018-10-21T07:43:55.025Z,100.00
2018-10-21T07:48:58.580Z,100.00
2018-10-21T07:54:02.062Z,100.00
2018-10-21T07:59:05.700Z,100.00
2018-10-21T08:04:09.303Z,100.00
2018-10-21T08:09:13.280Z,100.00
2018-10-21T08:14:16.798Z,100.00
2018-10-21T08:19:20.297Z,100.00
2018-10-21T08:24:23.776Z,100.00
2018-10-21T08:29:27.318Z,99.57
2018-10-21T08:34:30.837Z,97.94
2018-10-21T08:39:34.368Z,96.10
2018-10-21T08:44:37.964Z,94.59
2018-10-21T08:49:41.572Z,93.28
2018-10-21T08:54:45.119Z,90.48
2018-10-21T08:59:48.633Z,90.20
2018-10-21T09:04:52.249Z,87.92
2018-10-21T09:09:55.938Z,86.85
2018-10-21T09:14:59.505Z,86.40
2018-10-21T09:20:03.054Z,84.86
2018-10-21T09:25:06.996Z,83.96
2018-10-21T09:35:29.507Z,81.69
2018-10-21T09:40:33.017Z,80.19
2018-10-21T09:45:36.669Z,80.62
2018-10-21T09:50:43.350Z,80.88
2018-10-21T09:55:46.944Z,78.59
2018-10-21T10:00:55.804Z,77.71
2018-10-21T10:05:59.346Z,77.58
2018-10-21T10:11:03.042Z,75.97
2018-10-21T10:16:06.508Z,76.32
2018-10-21T10:21:10.006Z,75.54
2018-10-21T10:26:13.533Z,74.00
2018-10-21T10:31:17.110Z,74.94
2018-10-21T10:36:20.757Z,73.17
2018-10-21T10:41:24.192Z,72.40
2018-10-21T10:46:27.773Z,71.68
2018-10-21T10:51:31.307Z,72.85
2018-10-21T10:56:34.865Z,71.30
2018-10-21T11:01:38.380Z,71.46
2018-10-21T11:06:42.000Z,70.55
2018-10-21T11:11:45.500Z,69.02
2018-10-21T11:16:49.009Z,69.27
2018-10-21T11:21:52.554Z,68.47
2018-10-21T11:26:56.052Z,69.19
2018-10-21T11:31:59.581Z,67.49
2018-10-21T11:37:03.169Z,67.24
2018-10-21T11:42:07.002Z,66.10
2018-10-21T11:47:10.536Z,64.91
2018-10-21T11:52:14.254Z,65.01
2018-10-21T11:57:17.726Z,65.55
2018-10-21T12:02:21.417Z,64.88
2018-10-21T12:07:24.957Z,64.38
2018-10-21T12:12:28.692Z,63.36
2018-10-21T12:17:32.191Z,63.51
2018-10-21T12:22:35.803Z,63.07
2018-10-21T12:27:39.284Z,63.02
2018-10-21T12:32:42.788Z,61.64
2018-10-21T12:37:46.372Z,61.67
2018-10-21T12:42:49.862Z,61.88
2018-10-21T12:47:53.369Z,59.41
2018-10-21T12:52:56.970Z,60.11
2018-10-21T12:58:00.622Z,58.16
2018-10-21T13:03:04.379Z,56.80
2018-10-21T13:08:07.954Z,56.80
2018-10-21T13:13:11.481Z,57.74
2018-10-21T13:18:14.997Z,56.87
2018-10-21T13:23:18.529Z,57.33
2018-10-21T13:28:22.206Z,54.40
2018-10-21T13:33:25.916Z,54.62
2018-10-21T13:38:29.422Z,54.32
2018-10-21T13:43:32.926Z,53.03
2018-10-21T13:48:36.413Z,53.73
2018-10-21T13:53:39.929Z,52.01
2018-10-21T13:58:43.511Z,51.45
2018-10-21T14:03:47.284Z,50.85
2018-10-21T14:08:50.841Z,50.94
2018-10-21T14:13:54.333Z,51.21
2018-10-21T14:18:57.833Z,51.51
2018-10-21T14:24:01.585Z,51.11
2018-10-21T14:29:05.072Z,51.41
2018-10-21T14:34:08.657Z,50.30
2018-10-21T14:39:13.618Z,51.33
2018-10-21T14:44:17.186Z,50.20
2018-10-21T14:49:20.672Z,51.09
2018-10-21T14:54:24.535Z,50.56
2018-10-21T14:59:28.068Z,50.51
2018-10-21T15:04:31.682Z,50.88
2018-10-21T15:09:35.521Z,50.44
2018-10-21T15:14:39.239Z,50.75
2018-10-21T15:19:43.584Z,51.84
2018-10-21T15:24:47.391Z,53.70
2018-10-21T15:29:50.957Z,53.57
2018-10-21T15:34:54.615Z,56.25
2018-10-21T15:39:58.226Z,58.10
2018-10-21T15:45:01.913Z,58.91
2018-10-21T15:50:06.078Z,60.60
2018-10-21T15:55:10.117Z,63.67
2018-10-21T16:00:15.717Z,64.28
2018-10-21T16:05:24.053Z,66.77
2018-10-21T16:10:27.597Z,68.23
2018-10-21T16:15:31.102Z,68.96
2018-10-21T16:20:34.763Z,72.02
2018-10-21T16:25:38.440Z,74.04
2018-10-21T16:30:41.922Z,75.04
2018-10-21T16:35:45.508Z,75.90
2018-10-21T16:40:49.007Z,75.80
2018-10-21T16:45:52.525Z,76.07
2018-10-21T16:50:56.126Z,78.06
2018-10-21T16:55:59.848Z,78.58
2018-10-21T17:01:03.768Z,79.19
2018-10-21T17:06:07.237Z,80.40
2018-10-21T17:11:10.878Z,80.80
2018-10-21T17:16:14.574Z,80.49
2018-10-21T17:21:18.150Z,82.78
2018-10-21T17:26:21.795Z,81.94
2018-10-21T17:31:25.436Z,83.17
2018-10-21T17:36:29.148Z,83.18
2018-10-21T17:41:32.732Z,83.03
2018-10-21T17:46:36.836Z,84.21
2018-10-21T17:51:40.805Z,84.00
2018-10-21T17:56:49.824Z,84.01
2018-10-21T18:01:53.591Z,84.75
2018-10-21T18:06:57.238Z,85.78
2018-10-21T18:12:00.880Z,85.98
2018-10-21T18:17:04.774Z,86.38
2018-10-21T18:22:08.998Z,87.55
2018-10-21T18:27:12.599Z,87.41
2018-10-21T18:32:16.161Z,87.08
2018-10-21T18:37:19.992Z,88.26
2018-10-21T18:42:23.647Z,88.21
2018-10-21T18:47:27.286Z,88.61
2018-10-21T18:52:30.879Z,89.24
2018-10-21T18:57:34.443Z,89.25
2018-10-21T19:02:38.071Z,90.49
2018-10-21T19:07:41.912Z,90.49
2018-10-21T19:12:45.565Z,91.51
2018-10-21T19:17:50.006Z,91.65
2018-10-21T19:22:53.620Z,92.38
2018-10-21T19:27:57.266Z,92.02
2018-10-21T19:33:01.764Z,93.81
2018-10-21T19:38:05.587Z,95.15
2018-10-21T19:43:09.462Z,94.52
2018-10-21T19:48:14.602Z,94.27
2018-10-21T19:53:18.160Z,93.64
2018-10-21T19:58:21.918Z,94.71
2018-10-21T20:03:26.128Z,94.48
2018-10-21T20:08:29.804Z,95.27
2018-10-21T20:13:33.566Z,95.88
2018-10-21T20:18:37.146Z,95.84
2018-10-21T20:23:40.615Z,96.54
2018-10-21T20:28:44.184Z,96.18
2018-10-21T20:33:47.770Z,97.68
2018-10-21T20:38:51.525Z,97.89
2018-10-21T20:43:55.074Z,97.60
2018-10-21T20:48:58.641Z,97.45
2018-10-21T20:54:02.307Z,97.81
2018-10-21T20:59:06.155Z,97.84
2018-10-21T21:04:10.163Z,97.49
2018-10-21T21:09:13.795Z,99.51
2018-10-21T21:14:17.379Z,100.00
2018-10-21T21:19:20.913Z,100.00
2018-10-21T21:24:24.471Z,100.00
2018-10-21T21:29:28.123Z,100.00
2018-10-21T21:34:31.694Z,100.00
2018-10-21T21:39:35.453Z,100.00
2018-10-21T21:44:38.961Z,100.00
2018-10-21T21:49:45.373Z,100.00
2018-10-21T21:54:48.877Z,99.91
2018-10-21T21:59:52.410Z,99.83
2018-10-21T22:04:55.953Z,100.00
2018-10-21T22:09:59.483Z,99.71
2018-10-21T22:15:03.047Z,100.00
2018-10-21T22:20:06.868Z,100.00
2018-10-21T22:25:10.882Z,100.00
2018-10-21T22:35:40.268Z,100.00
2018-10-21T22:40:44.406Z,100.00
2018-10-21T22:45:47.962Z,100.00
2018-10-21T22:50:51.564Z,100.00
2018-10-21T22:55:55.158Z,100.00
2018-10-21T23:00:58.929Z,100.00
2018-10-21T23:06:02.491Z,100.00
2018-10-21T23:11:06.326Z,100.00
2018-10-21T23:16:10.207Z,100.00
2018-10-21T23:21:13.762Z,100.00
2018-10-21T23:26:17.400Z,100.00
2018-10-21T23:31:21.002Z,100.00
2018-10-21T23:36:24.797Z,100.00
2018-10-21T23:41:28.553Z,100.00
2018-10-21T23:46:32.281Z,100.00
2018-10-21T23:51:35.794Z,99.18
2018-10-21T23:56:39.304Z,100.00
